createdAt,value
2022-09-03T00:02:33.631Z,15.00
2022-09-03T00:05:09.975Z,14.70
2022-09-03T00:08:33.612Z,14.60
2022-09-03T00:15:04.119Z,14.40
2022-09-03T00:17:59.008Z,15.10
2022-09-03T00:20:46.945Z,15.10
2022-09-03T00:23:26.715Z,14.60
2022-09-03T00:26:11.170Z,14.90
2022-09-03T00:28:51.299Z,13.60
2022-09-03T00:31:38.898Z,13.30
2022-09-03T00:34:41.411Z,14.30
2022-09-03T00:37:14.263Z,14.50
2022-09-03T00:39:44.225Z,14.60
2022-09-03T00:42:39.835Z,14.00
2022-09-03T00:45:50.448Z,14.70
2022-09-03T00:48:32.227Z,13.50
2022-09-03T00:51:35.237Z,13.50
2022-09-03T00:54:33.963Z,13.70
2022-09-03T00:57:40.186Z,13.30
2022-09-03T01:00:14.214Z,14.60
2022-09-03T01:03:08.627Z,14.60
2022-09-03T01:06:12.639Z,15.20
2022-09-03T01:09:09.483Z,13.40
2022-09-03T01:12:41.684Z,14.60
2022-09-03T01:15:44.094Z,13.50
2022-09-03T01:18:35.729Z,12.90
2022-09-03T01:22:05.445Z,14.70
2022-09-03T01:25:17.624Z,13.90
2022-09-03T01:28:42.773Z,12.70
2022-09-03T01:31:52.651Z,14.50
2022-09-03T01:35:08.875Z,12.80
2022-09-03T01:38:05.644Z,14.60
2022-09-03T01:41:25.216Z,12.40
2022-09-03T01:44:40.463Z,13.00
2022-09-03T01:47:54.508Z,13.00
2022-09-03T01:50:46.507Z,13.90
2022-09-03T01:54:05.340Z,14.40
2022-09-03T01:57:35.621Z,13.10
2022-09-03T02:00:13.761Z,14.30
2022-09-03T02:05:25.710Z,13.10
2022-09-03T02:08:08.219Z,12.80
2022-09-03T02:11:09.637Z,12.90
2022-09-03T02:13:52.155Z,13.00
2022-09-03T02:16:26.855Z,12.40
2022-09-03T02:19:02.029Z,12.90
2022-09-03T02:21:38.279Z,12.90
2022-09-03T02:24:09.324Z,12.70
2022-09-03T02:29:05.787Z,13.10
2022-09-03T02:31:33.872Z,13.00
2022-09-03T02:34:01.930Z,13.60
2022-09-03T02:36:42.772Z,12.20
2022-09-03T02:39:10.772Z,12.90
2022-09-03T02:44:24.001Z,13.30
2022-09-03T02:47:02.664Z,12.40
2022-09-03T02:49:31.858Z,11.60
2022-09-03T02:52:12.208Z,12.10
2022-09-03T02:57:16.245Z,12.30
2022-09-03T03:19:34.937Z,11.00
2022-09-03T04:01:55.498Z,12.20
2022-09-03T04:29:10.453Z,10.00
2022-09-03T04:31:39.408Z,9.90
2022-09-03T04:46:33.105Z,11.40
2022-09-03T04:54:02.093Z,11.70
2022-09-03T04:56:35.574Z,10.70
2022-09-03T04:59:09.487Z,10.70
2022-09-03T05:01:40.231Z,10.80
2022-09-03T05:04:09.180Z,11.10
2022-09-03T05:06:37.687Z,11.30
2022-09-03T05:09:06.456Z,9.90
2022-09-03T05:16:33.775Z,10.60
2022-09-03T05:21:32.653Z,11.40
2022-09-03T05:24:03.008Z,10.70
2022-09-03T05:26:39.335Z,10.30
2022-09-03T05:29:08.325Z,11.30
2022-09-03T05:31:40.347Z,11.50
2022-09-03T05:46:38.451Z,11.00
2022-09-03T05:49:08.129Z,10.40
2022-09-03T05:51:39.801Z,11.80
2022-09-03T05:56:40.176Z,10.30
2022-09-03T05:59:10.286Z,11.00
2022-09-03T06:01:50.787Z,11.30
2022-09-03T06:04:20.722Z,11.30
2022-09-03T06:06:49.763Z,11.50
2022-09-03T06:09:23.277Z,10.60
2022-09-03T06:19:20.927Z,12.20
2022-09-03T06:24:26.299Z,11.40
2022-09-03T06:26:57.183Z,11.90
2022-09-03T06:47:00.303Z,11.40
2022-09-03T06:49:28.358Z,13.20
2022-09-03T06:54:25.113Z,12.60
2022-09-03T07:04:20.227Z,12.90
2022-09-03T07:06:48.659Z,12.50
2022-09-03T07:09:18.858Z,13.80
2022-09-03T07:14:19.431Z,13.30
2022-09-03T07:16:49.593Z,13.00
2022-09-03T07:19:18.283Z,13.30
2022-09-03T07:24:21.847Z,13.20
2022-09-03T07:26:50.118Z,13.40
2022-09-03T07:29:21.850Z,13.40
2022-09-03T07:31:52.174Z,13.00
2022-09-03T07:34:25.538Z,13.70
2022-09-03T07:36:54.843Z,14.80
2022-09-03T07:39:22.982Z,14.70
2022-09-03T07:44:20.222Z,13.70
2022-09-03T07:46:50.886Z,14.30
2022-09-03T07:49:21.583Z,15.50
2022-09-03T07:51:54.349Z,14.30
2022-09-03T07:56:53.991Z,15.40
2022-09-03T07:59:22.955Z,14.60
2022-09-03T08:01:52.933Z,16.50
2022-09-03T08:04:21.970Z,16.30
2022-09-03T08:06:49.945Z,15.10
2022-09-03T08:09:17.929Z,15.80
2022-09-03T08:11:45.872Z,16.30
2022-09-03T08:14:14.883Z,16.20
2022-09-03T08:16:47.933Z,15.40
2022-09-03T08:19:20.908Z,15.10
2022-09-03T08:21:48.942Z,15.10
2022-09-03T08:29:21.544Z,15.60
2022-09-03T08:31:49.895Z,15.00
2022-09-03T08:34:19.395Z,15.70
2022-09-03T08:36:47.779Z,15.60
2022-09-03T08:39:16.682Z,16.10
2022-09-03T08:41:53.546Z,16.40
2022-09-03T08:47:12.130Z,16.80
2022-09-03T08:50:31.350Z,16.50
2022-09-03T08:53:57.959Z,16.60
2022-09-03T08:56:29.293Z,16.90
2022-09-03T08:58:57.883Z,15.90
2022-09-03T09:01:57.445Z,17.00
2022-09-03T09:04:48.120Z,16.70
2022-09-03T09:07:53.377Z,16.80
2022-09-03T09:10:45.399Z,17.50
2022-09-03T09:13:40.752Z,16.90
2022-09-03T09:16:33.264Z,17.30
2022-09-03T09:19:15.999Z,17.10
2022-09-03T09:21:56.613Z,18.30
2022-09-03T09:24:39.939Z,17.50
2022-09-03T09:27:10.809Z,18.40
2022-09-03T09:32:12.792Z,18.30
2022-09-03T09:37:16.005Z,18.40
2022-09-03T09:40:00.681Z,17.80
2022-09-03T09:42:31.582Z,18.40
2022-09-03T09:45:10.035Z,17.10
2022-09-03T09:47:42.432Z,18.30
2022-09-03T09:50:24.441Z,19.60
2022-09-03T09:53:16.180Z,18.90
2022-09-03T09:55:58.064Z,18.30
2022-09-03T09:58:30.782Z,19.60
2022-09-03T10:01:15.125Z,19.20
2022-09-03T10:03:56.836Z,19.30
2022-09-03T10:06:48.632Z,18.80
2022-09-03T10:09:31.076Z,19.40
2022-09-03T10:12:40.081Z,20.00
2022-09-03T10:15:40.968Z,18.70
2022-09-03T10:18:18.234Z,19.10
2022-09-03T10:21:06.168Z,20.90
2022-09-03T10:24:15.521Z,21.00
2022-09-03T10:26:47.103Z,19.50
2022-09-03T10:29:23.460Z,21.20
2022-09-03T10:32:59.999Z,21.20
2022-09-03T10:35:46.201Z,20.10
2022-09-03T10:38:34.567Z,20.50
2022-09-03T10:41:41.421Z,21.50
2022-09-03T10:44:25.863Z,20.90
2022-09-03T10:47:32.291Z,22.90
2022-09-03T10:50:25.527Z,22.00
2022-09-03T10:53:26.252Z,23.70
2022-09-03T10:55:54.057Z,24.20
2022-09-03T10:58:48.783Z,25.00
2022-09-03T11:01:46.632Z,24.80
2022-09-03T11:07:13.425Z,26.50
2022-09-03T11:10:09.851Z,28.70
2022-09-03T11:13:04.898Z,28.10
2022-09-03T11:16:05.110Z,27.60
2022-09-03T11:18:41.322Z,28.20
2022-09-03T11:21:14.916Z,29.40
2022-09-03T11:23:48.216Z,29.60
2022-09-03T11:26:19.904Z,28.40
2022-09-03T11:29:26.761Z,30.20
2022-09-03T11:32:26.699Z,29.10
2022-09-03T11:35:31.684Z,30.80
2022-09-03T11:38:21.169Z,31.00
2022-09-03T11:41:22.762Z,30.80
2022-09-03T11:43:59.111Z,30.70
2022-09-03T11:46:34.079Z,31.10
2022-09-03T11:49:14.023Z,30.30
2022-09-03T11:52:02.100Z,31.00
2022-09-03T11:54:46.158Z,31.20
2022-09-03T11:57:43.670Z,31.40
2022-09-03T12:00:21.657Z,31.60
2022-09-03T12:03:17.914Z,32.30
2022-09-03T12:06:27.434Z,32.80
2022-09-03T12:09:39.224Z,32.60
2022-09-03T12:13:01.016Z,33.30
2022-09-03T12:16:24.861Z,32.60
2022-09-03T12:19:00.342Z,32.20
2022-09-03T12:24:03.019Z,31.30
2022-09-03T12:26:42.569Z,30.50
2022-09-03T12:29:28.479Z,30.10
2022-09-03T12:32:10.154Z,30.80
2022-09-03T12:34:38.326Z,30.50
2022-09-03T12:40:29.296Z,30.90
2022-09-03T12:51:53.363Z,33.40
2022-09-03T12:56:58.784Z,32.80
2022-09-03T12:59:31.184Z,34.20
2022-09-03T13:02:18.092Z,34.50
2022-09-03T13:04:47.367Z,34.80
2022-09-03T13:07:28.829Z,34.10
2022-09-03T13:10:06.857Z,34.80
2022-09-03T13:12:53.611Z,35.60
2022-09-03T13:15:26.508Z,36.00
2022-09-03T13:22:04.187Z,36.90
2022-09-03T13:25:20.283Z,36.30
2022-09-03T13:28:03.869Z,35.10
2022-09-03T13:31:03.751Z,35.50
2022-09-03T13:33:45.466Z,37.00
2022-09-03T13:36:37.696Z,36.30
2022-09-03T13:39:38.590Z,36.70
2022-09-03T13:42:40.899Z,35.10
2022-09-03T13:45:43.227Z,34.70
2022-09-03T13:48:55.932Z,36.20
2022-09-03T13:51:56.764Z,35.50
2022-09-03T13:54:49.023Z,35.00
2022-09-03T13:57:41.135Z,36.00
2022-09-03T14:00:24.975Z,35.30
2022-09-03T14:03:32.177Z,35.00
2022-09-03T14:06:42.608Z,35.30
2022-09-03T14:10:04.065Z,36.10
2022-09-03T14:12:55.968Z,35.90
2022-09-03T14:16:16.075Z,34.40
2022-09-03T14:18:58.512Z,35.30
2022-09-03T14:21:59.798Z,34.60
2022-09-03T14:27:02.637Z,33.70
2022-09-03T14:29:34.786Z,33.00
2022-09-03T14:32:35.723Z,32.00
2022-09-03T14:39:27.722Z,34.00
2022-09-03T14:45:33.023Z,32.50
2022-09-03T14:48:37.315Z,33.20
2022-09-03T14:51:21.088Z,32.10
2022-09-03T14:54:51.125Z,32.50
2022-09-03T14:58:16.700Z,32.80
2022-09-03T15:01:00.345Z,32.00
2022-09-03T15:04:03.885Z,32.30
2022-09-03T15:07:02.225Z,31.50
2022-09-03T15:10:02.423Z,31.90
2022-09-03T15:12:53.001Z,30.10
2022-09-03T15:15:43.752Z,31.10
2022-09-03T15:18:44.689Z,30.40
2022-09-03T15:21:40.214Z,30.60
2022-09-03T15:25:14.279Z,28.60
2022-09-03T15:28:24.580Z,28.50
2022-09-03T15:31:52.689Z,28.90
2022-09-03T15:34:56.831Z,27.40
2022-09-03T15:37:38.944Z,28.60
2022-09-03T15:40:32.477Z,28.00
2022-09-03T15:43:21.791Z,27.30
2022-09-03T15:47:12.224Z,27.90
2022-09-03T15:49:54.689Z,28.10
2022-09-03T15:55:34.428Z,30.10
2022-09-03T16:01:45.874Z,31.20
2022-09-03T16:04:16.638Z,30.90
2022-09-03T16:07:01.034Z,31.20
2022-09-03T16:10:07.873Z,31.10
2022-09-03T16:13:27.657Z,31.30
2022-09-03T16:16:06.118Z,31.50
2022-09-03T16:18:49.765Z,30.50
2022-09-03T16:24:28.831Z,32.60
2022-09-03T16:27:36.198Z,31.60
2022-09-03T16:33:09.439Z,31.50
2022-09-03T16:38:49.190Z,31.20
2022-09-03T16:42:07.477Z,30.90
2022-09-03T16:45:06.747Z,31.50
2022-09-03T16:48:14.242Z,31.60
2022-09-03T16:53:40.032Z,30.20
2022-09-03T16:56:59.775Z,29.00
2022-09-03T17:00:05.087Z,29.80
2022-09-03T17:03:29.756Z,30.20
2022-09-03T17:06:36.729Z,29.10
2022-09-03T17:09:54.220Z,28.50
2022-09-03T17:16:24.660Z,26.90
2022-09-03T17:19:33.172Z,27.10
2022-09-03T17:22:28.222Z,26.10
2022-09-03T17:25:07.180Z,26.00
2022-09-03T17:28:03.736Z,26.90
2022-09-03T17:33:54.484Z,26.50
2022-09-03T17:36:31.322Z,25.10
2022-09-03T17:39:42.810Z,25.20
2022-09-03T17:42:40.071Z,25.00
2022-09-03T17:45:38.068Z,26.90
2022-09-03T17:48:46.225Z,24.40
2022-09-03T17:51:48.071Z,24.80
2022-09-03T17:54:28.018Z,24.20
2022-09-03T17:57:38.210Z,24.20
2022-09-03T18:00:12.213Z,23.80
2022-09-03T18:03:03.149Z,23.70
2022-09-03T18:05:48.333Z,23.20
2022-09-03T18:09:17.627Z,23.80
2022-09-03T18:11:57.701Z,23.00
2022-09-03T18:15:21.493Z,23.60
2022-09-03T18:18:05.588Z,23.60
2022-09-03T18:21:30.901Z,22.20
2022-09-03T18:25:02.415Z,22.50
2022-09-03T18:28:15.121Z,23.20
2022-09-03T18:39:47.194Z,21.60
2022-09-03T18:43:21.635Z,21.50
2022-09-03T18:50:12.448Z,21.80
2022-09-03T18:56:55.536Z,21.40
2022-09-03T19:06:54.291Z,21.10
2022-09-03T19:10:09.465Z,21.30
2022-09-03T19:13:44.345Z,20.90
2022-09-03T19:17:09.503Z,22.60
2022-09-03T19:20:29.073Z,21.30
2022-09-03T19:23:15.700Z,20.80
2022-09-03T19:28:52.218Z,20.30
2022-09-03T19:32:11.710Z,19.70
2022-09-03T19:35:26.434Z,21.50
2022-09-03T19:38:43.486Z,20.40
2022-09-03T19:41:44.389Z,19.60
2022-09-03T19:45:17.068Z,19.60
2022-09-03T19:48:41.387Z,19.10
2022-09-03T19:51:48.801Z,19.60
2022-09-03T19:54:43.612Z,20.70
2022-09-03T19:57:33.288Z,19.60
2022-09-03T20:06:13.356Z,19.00
2022-09-03T20:11:30.508Z,19.40
2022-09-03T20:14:23.395Z,19.10
2022-09-03T20:19:58.135Z,18.80
2022-09-03T20:23:14.369Z,19.10
2022-09-03T20:26:09.782Z,18.80
2022-09-03T20:29:12.299Z,18.80
2022-09-03T20:32:25.211Z,19.00
2022-09-03T20:35:38.419Z,18.70
2022-09-03T20:38:32.376Z,19.20
2022-09-03T20:42:15.641Z,19.20
2022-09-03T20:45:23.197Z,18.80
2022-09-03T20:49:00.664Z,18.30
2022-09-03T20:51:41.069Z,18.00
2022-09-03T20:55:05.786Z,18.60
2022-09-03T20:57:55.460Z,17.70
2022-09-03T21:00:50.904Z,18.60
2022-09-03T21:06:33.456Z,18.90
2022-09-03T21:10:07.213Z,17.00
2022-09-03T21:13:06.433Z,17.40
2022-09-03T21:16:01.646Z,17.10
2022-09-03T21:19:25.815Z,17.50
2022-09-03T21:22:41.933Z,18.80
2022-09-03T21:25:17.590Z,17.10
2022-09-03T21:27:59.753Z,16.80
2022-09-03T21:30:30.193Z,16.90
2022-09-03T21:33:29.323Z,17.90
2022-09-03T21:36:31.388Z,18.00
2022-09-03T21:39:15.626Z,17.90
2022-09-03T21:42:26.371Z,16.90
2022-09-03T21:45:07.533Z,16.60
2022-09-03T21:47:48.002Z,17.00
2022-09-03T21:50:23.150Z,16.40
2022-09-03T21:53:20.566Z,16.00
2022-09-03T21:56:36.007Z,16.00
2022-09-03T21:59:20.193Z,17.40
2022-09-03T22:02:27.177Z,17.60
2022-09-03T22:04:57.954Z,16.70
2022-09-03T22:07:55.799Z,16.00
2022-09-03T22:11:28.687Z,17.70
2022-09-03T22:14:12.507Z,15.20
2022-09-03T22:16:58.705Z,15.50
2022-09-03T22:19:37.351Z,16.20
2022-09-03T22:22:22.943Z,16.30
2022-09-03T22:28:13.310Z,16.50
2022-09-03T22:31:21.236Z,14.70
2022-09-03T22:34:20.791Z,15.40
2022-09-03T22:37:02.439Z,16.20
2022-09-03T22:39:47.161Z,15.00
2022-09-03T22:43:01.784Z,15.20
2022-09-03T22:46:05.115Z,16.70
2022-09-03T22:48:50.915Z,17.00
2022-09-03T22:51:21.798Z,16.40
2022-09-03T22:54:38.148Z,15.20
2022-09-03T22:57:08.261Z,16.70
2022-09-03T23:00:06.185Z,15.20
2022-09-03T23:02:34.578Z,16.30
2022-09-03T23:05:20.232Z,14.70
2022-09-03T23:08:06.833Z,14.60
2022-09-03T23:11:12.014Z,15.60
2022-09-03T23:13:49.320Z,15.20
2022-09-03T23:16:54.896Z,14.90
2022-09-03T23:22:13.132Z,15.10
2022-09-03T23:24:55.420Z,15.00
2022-09-03T23:27:47.542Z,14.60
2022-09-03T23:32:44.593Z,15.00
2022-09-03T23:35:19.425Z,14.70
2022-09-03T23:38:23.974Z,14.80
2022-09-03T23:40:58.157Z,14.80
2022-09-03T23:46:34.568Z,15.20
2022-09-03T23:49:20.568Z,14.40
2022-09-03T23:52:20.721Z,14.40
2022-09-03T23:55:21.536Z,13.80
2022-09-03T23:58:29.527Z,14.60
